createdAt,value
2023-02-22T00:00:46.225Z,990.26
2023-02-22T00:01:46.219Z,990.29
2023-02-22T00:02:46.224Z,990.30
2023-02-22T00:03:46.226Z,990.24
2023-02-22T00:04:46.150Z,990.23
2023-02-22T00:05:46.170Z,990.23
2023-02-22T00:06:46.182Z,990.28
2023-02-22T00:07:46.139Z,990.23
2023-02-22T00:08:46.112Z,990.24
2023-02-22T00:09:46.149Z,990.20
2023-02-22T00:10:46.107Z,990.21
2023-02-22T00:11:46.093Z,990.18
2023-02-22T00:12:46.118Z,990.17
2023-02-22T00:13:46.079Z,990.20
2023-02-22T00:14:46.054Z,990.20
2023-02-22T00:15:46.083Z,990.19
2023-02-22T00:16:46.068Z,990.16
2023-02-22T00:17:46.017Z,990.20
2023-02-22T00:18:46.065Z,990.17
2023-02-22T00:19:46.035Z,990.19
2023-02-22T00:20:45.986Z,990.09
2023-02-22T00:21:46.028Z,990.02
2023-02-22T00:22:45.996Z,990.03
2023-02-22T00:23:45.969Z,990.06
2023-02-22T00:24:45.965Z,990.04
2023-02-22T00:25:45.969Z,990.01
2023-02-22T00:26:45.920Z,990.01
2023-02-22T00:27:45.942Z,990.01
2023-02-22T00:28:45.931Z,990.02
2023-02-22T00:29:45.931Z,989.98
2023-02-22T00:30:45.884Z,989.97
2023-02-22T00:31:45.981Z,989.98
2023-02-22T00:32:45.943Z,989.99
2023-02-22T00:33:45.919Z,990.02
2023-02-22T00:34:45.848Z,990.02
2023-02-22T00:35:45.884Z,990.01
2023-02-22T00:36:45.876Z,990.02
2023-02-22T00:37:45.824Z,990.01
2023-02-22T00:38:45.792Z,989.97
2023-02-22T00:39:45.813Z,990.04
2023-02-22T00:40:45.814Z,989.96
2023-02-22T00:41:45.785Z,990.03
2023-02-22T00:42:45.798Z,990.01
2023-02-22T00:43:45.770Z,990.00
2023-02-22T00:44:46.742Z,990.02
2023-02-22T00:45:45.750Z,990.07
2023-02-22T00:46:45.745Z,990.01
2023-02-22T00:47:45.724Z,990.01
2023-02-22T00:48:45.715Z,989.99
2023-02-22T00:49:45.720Z,989.88
2023-02-22T00:50:45.697Z,989.92
2023-02-22T00:51:45.684Z,989.89
2023-02-22T00:52:45.677Z,989.94
2023-02-22T00:53:45.660Z,989.91
2023-02-22T00:54:45.642Z,989.92
2023-02-22T00:55:45.622Z,989.95
2023-02-22T00:56:45.628Z,989.95
2023-02-22T00:57:45.627Z,989.86
2023-02-22T00:58:45.614Z,989.85
2023-02-22T00:59:45.593Z,989.83
2023-02-22T01:00:45.574Z,989.83
2023-02-22T01:01:45.555Z,989.85
2023-02-22T01:02:45.572Z,989.84
2023-02-22T01:03:45.548Z,989.84
2023-02-22T01:04:45.518Z,989.83
2023-02-22T01:05:45.534Z,989.82
2023-02-22T01:06:45.552Z,989.86
2023-02-22T01:07:45.499Z,989.80
2023-02-22T01:08:45.469Z,989.84
2023-02-22T01:09:45.482Z,989.83
2023-02-22T01:10:45.494Z,989.82
2023-02-22T01:11:45.467Z,989.83
2023-02-22T01:12:45.434Z,989.76
2023-02-22T01:13:45.451Z,989.78
2023-02-22T01:14:45.425Z,989.75
2023-02-22T01:15:45.419Z,989.74
2023-02-22T01:16:45.457Z,989.77
2023-02-22T01:17:45.409Z,989.79
2023-02-22T01:18:45.378Z,989.75
2023-02-22T01:19:45.360Z,989.76
2023-02-22T01:20:45.398Z,989.71
2023-02-22T01:21:45.318Z,989.74
2023-02-22T01:22:46.364Z,989.75
2023-02-22T01:23:45.373Z,989.74
2023-02-22T01:24:45.290Z,989.68
2023-02-22T01:25:45.301Z,989.69
2023-02-22T01:26:45.335Z,989.67
2023-02-22T01:27:45.303Z,989.64
2023-02-22T01:28:45.255Z,989.67
2023-02-22T01:29:45.281Z,989.65
2023-02-22T01:30:45.361Z,989.64
2023-02-22T01:31:45.289Z,989.60
2023-02-22T01:32:45.255Z,989.59
2023-02-22T01:33:45.238Z,989.62
2023-02-22T01:34:45.186Z,989.62
2023-02-22T01:35:45.186Z,989.62
2023-02-22T01:36:45.227Z,989.62
2023-02-22T01:37:45.175Z,989.62
2023-02-22T01:38:45.156Z,989.50
2023-02-22T01:39:45.172Z,989.59
2023-02-22T01:40:45.153Z,989.60
2023-02-22T01:41:45.155Z,989.57
2023-02-22T01:42:45.118Z,989.52
2023-02-22T01:43:46.108Z,989.61
2023-02-22T01:44:45.125Z,989.52
2023-02-22T01:45:45.145Z,989.54
2023-02-22T01:46:45.093Z,989.52
2023-02-22T01:47:45.083Z,989.50
2023-02-22T01:48:45.102Z,989.48
2023-02-22T01:49:45.047Z,989.50
2023-02-22T01:50:45.043Z,989.49
2023-02-22T01:51:45.088Z,989.42
2023-02-22T01:52:44.994Z,989.42
2023-02-22T01:53:45.011Z,989.48
2023-02-22T01:54:44.985Z,989.40
2023-02-22T01:55:44.978Z,989.43
2023-02-22T01:56:44.981Z,989.42
2023-02-22T01:57:44.990Z,989.37
2023-02-22T01:58:44.945Z,989.40
2023-02-22T01:59:44.938Z,989.39
2023-02-22T02:00:44.954Z,989.36
2023-02-22T02:01:44.899Z,989.33
2023-02-22T02:02:44.929Z,989.36
2023-02-22T02:03:44.935Z,989.36
2023-02-22T02:04:44.879Z,989.31
2023-02-22T02:05:44.851Z,989.37
2023-02-22T02:06:44.899Z,989.32
2023-02-22T02:07:44.862Z,989.26
2023-02-22T02:08:44.825Z,989.32
2023-02-22T02:09:44.862Z,989.27
2023-02-22T02:10:44.829Z,989.30
2023-02-22T02:11:44.814Z,989.29
2023-02-22T02:12:44.799Z,989.29
2023-02-22T02:13:44.787Z,989.23
2023-02-22T02:14:44.784Z,989.24
2023-02-22T02:15:44.782Z,989.24
2023-02-22T02:17:17.373Z,989.25
2023-02-22T02:17:44.839Z,989.26
2023-02-22T02:18:44.760Z,989.24
2023-02-22T02:19:44.729Z,989.20
2023-02-22T02:20:44.920Z,989.19
2023-02-22T02:21:44.697Z,989.18
2023-02-22T02:22:44.701Z,989.18
2023-02-22T02:23:44.704Z,989.19
2023-02-22T02:24:44.658Z,989.18
2023-02-22T02:25:44.696Z,989.17
2023-02-22T02:26:44.657Z,989.16
2023-02-22T02:27:44.733Z,989.12
2023-02-22T02:28:44.655Z,989.12
2023-02-22T02:29:44.633Z,989.10
2023-02-22T02:30:44.697Z,989.11
2023-02-22T02:31:44.702Z,989.13
2023-02-22T02:32:44.682Z,989.16
2023-02-22T02:33:44.582Z,989.11
2023-02-22T02:34:44.567Z,989.10
2023-02-22T02:35:44.556Z,989.13
2023-02-22T02:36:44.527Z,989.09
2023-02-22T02:37:44.537Z,989.10
2023-02-22T02:38:44.617Z,989.16
2023-02-22T02:39:44.523Z,989.09
2023-02-22T02:40:44.532Z,989.06
2023-02-22T02:41:44.503Z,989.05
2023-02-22T02:42:44.470Z,989.07
2023-02-22T02:43:44.464Z,989.05
2023-02-22T02:44:44.447Z,989.06
2023-02-22T02:45:45.441Z,989.03
2023-02-22T02:46:44.437Z,989.03
2023-02-22T02:47:44.420Z,989.06
2023-02-22T02:48:44.413Z,989.00
2023-02-22T02:49:44.392Z,989.04
2023-02-22T02:50:44.379Z,989.02
2023-02-22T02:51:44.399Z,989.04
2023-02-22T02:52:44.357Z,989.07
2023-02-22T02:53:44.340Z,989.02
2023-02-22T02:54:44.354Z,988.99
2023-02-22T02:55:44.334Z,989.04
2023-02-22T02:56:45.340Z,989.03
2023-02-22T02:57:44.318Z,989.00
2023-02-22T02:58:44.296Z,988.97
2023-02-22T02:59:44.281Z,988.95
2023-02-22T03:00:44.281Z,988.98
2023-02-22T03:01:44.313Z,988.94
2023-02-22T03:02:44.285Z,989.03
2023-02-22T03:03:44.243Z,989.03
2023-02-22T03:04:44.226Z,988.98
2023-02-22T03:05:44.245Z,988.96
2023-02-22T03:06:44.225Z,989.00
2023-02-22T03:07:44.266Z,988.97
2023-02-22T03:08:44.206Z,988.90
2023-02-22T03:09:44.187Z,988.95
2023-02-22T03:10:44.184Z,988.93
2023-02-22T03:11:44.173Z,988.93
2023-02-22T03:12:44.165Z,988.96
2023-02-22T03:13:44.139Z,988.89
2023-02-22T03:14:44.127Z,988.91
2023-02-22T03:15:44.123Z,988.92
2023-02-22T03:16:44.163Z,988.90
2023-02-22T03:17:44.110Z,988.83
2023-02-22T03:18:44.084Z,988.87
2023-02-22T03:19:44.083Z,988.91
2023-02-22T03:20:44.085Z,988.82
2023-02-22T03:21:44.059Z,988.88
2023-02-22T03:22:44.089Z,988.87
2023-02-22T03:23:44.114Z,988.89
2023-02-22T03:24:44.037Z,988.82
2023-02-22T03:25:44.091Z,988.80
2023-02-22T03:26:44.033Z,988.79
2023-02-22T03:27:43.978Z,988.83
2023-02-22T03:28:43.983Z,988.87
2023-02-22T03:29:43.995Z,988.85
2023-02-22T03:30:43.986Z,988.83
2023-02-22T03:31:44.963Z,988.83
2023-02-22T03:32:43.938Z,988.82
2023-02-22T03:33:43.917Z,988.78
2023-02-22T03:34:43.951Z,988.81
2023-02-22T03:35:43.906Z,988.79
2023-02-22T03:36:43.916Z,988.78
2023-02-22T03:37:43.892Z,988.80
2023-02-22T03:38:43.871Z,988.78
2023-02-22T03:39:43.882Z,988.82
2023-02-22T03:40:43.859Z,988.72
2023-02-22T03:41:43.842Z,988.79
2023-02-22T03:42:43.839Z,988.79
2023-02-22T03:43:43.814Z,988.81
2023-02-22T03:44:43.812Z,988.77
2023-02-22T03:45:43.810Z,988.72
2023-02-22T03:46:43.785Z,988.79
2023-02-22T03:47:43.779Z,988.80
2023-02-22T03:48:43.776Z,988.73
2023-02-22T03:49:43.748Z,988.74
2023-02-22T03:50:43.818Z,988.74
2023-02-22T03:51:43.754Z,988.74
2023-02-22T03:52:43.839Z,988.78
2023-02-22T03:53:43.777Z,988.78
2023-02-22T03:54:43.708Z,988.67
2023-02-22T03:55:43.787Z,988.72
2023-02-22T03:56:43.672Z,988.74
2023-02-22T03:57:43.818Z,988.68
2023-02-22T03:58:43.651Z,988.73
2023-02-22T03:59:43.668Z,988.77
2023-02-22T04:00:43.647Z,988.76
2023-02-22T04:01:43.665Z,988.75
2023-02-22T04:02:43.621Z,988.74
2023-02-22T04:03:43.600Z,988.77
2023-02-22T04:04:43.610Z,988.73
2023-02-22T04:05:43.683Z,988.74
2023-02-22T04:06:43.634Z,988.65
2023-02-22T04:07:43.551Z,988.72
2023-02-22T04:08:43.555Z,988.69
2023-02-22T04:09:43.542Z,988.70
2023-02-22T04:10:43.696Z,988.72
2023-02-22T04:11:43.533Z,988.64
2023-02-22T04:12:43.520Z,988.68
2023-02-22T04:13:44.506Z,988.70
2023-02-22T04:14:43.532Z,988.66
2023-02-22T04:15:43.497Z,988.65
2023-02-22T04:16:43.537Z,988.64
2023-02-22T04:17:43.440Z,988.68
2023-02-22T04:18:44.520Z,988.72
2023-02-22T04:19:43.449Z,988.69
2023-02-22T04:20:43.409Z,988.70
2023-02-22T04:21:43.405Z,988.70
2023-02-22T04:22:43.421Z,988.67
2023-02-22T04:23:43.388Z,988.67
2023-02-22T04:24:43.387Z,988.70
2023-02-22T04:25:43.392Z,988.71
2023-02-22T04:26:43.348Z,988.65
2023-02-22T04:27:43.345Z,988.70
2023-02-22T04:28:43.350Z,988.60
2023-02-22T04:29:43.326Z,988.61
2023-02-22T04:30:43.306Z,988.63
2023-02-22T04:31:43.369Z,988.67
2023-02-22T04:32:43.291Z,988.67
2023-02-22T04:33:43.312Z,988.67
2023-02-22T04:34:43.309Z,988.63
2023-02-22T04:35:43.260Z,988.68
2023-02-22T04:36:43.236Z,988.69
2023-02-22T04:37:43.245Z,988.59
2023-02-22T04:38:43.224Z,988.66
2023-02-22T04:39:43.229Z,988.62
2023-02-22T04:40:44.212Z,988.67
2023-02-22T04:41:43.297Z,988.60
2023-02-22T04:42:43.170Z,988.68
2023-02-22T04:43:43.173Z,988.59
2023-02-22T04:44:43.178Z,988.69
2023-02-22T04:45:43.174Z,988.67
2023-02-22T04:46:43.201Z,988.67
2023-02-22T04:47:43.141Z,988.70
2023-02-22T04:48:43.142Z,988.67
2023-02-22T04:49:43.126Z,988.75
2023-02-22T04:50:43.108Z,988.70
2023-02-22T04:51:43.098Z,988.71
2023-02-22T04:52:43.068Z,988.67
2023-02-22T04:53:43.082Z,988.76
2023-02-22T04:54:43.068Z,988.70
2023-02-22T04:55:43.036Z,988.72
2023-02-22T04:56:43.061Z,988.70
2023-02-22T04:57:43.023Z,988.76
2023-02-22T04:58:42.999Z,988.71
2023-02-22T04:59:43.014Z,988.72
2023-02-22T05:00:43.002Z,988.72
2023-02-22T05:01:42.986Z,988.69
2023-02-22T05:02:43.030Z,988.70
2023-02-22T05:03:42.954Z,988.70
2023-02-22T05:04:42.971Z,988.74
2023-02-22T05:05:42.963Z,988.67
2023-02-22T05:06:42.941Z,988.62
2023-02-22T05:07:42.932Z,988.64
2023-02-22T05:08:42.906Z,988.65
2023-02-22T05:09:42.904Z,988.66
2023-02-22T05:10:42.896Z,988.67
2023-02-22T05:11:42.917Z,988.69
2023-02-22T05:12:42.901Z,988.75
2023-02-22T05:13:42.873Z,988.67
2023-02-22T05:14:42.848Z,988.67
2023-02-22T05:15:42.932Z,988.68
2023-02-22T05:16:42.823Z,988.73
2023-02-22T05:17:42.809Z,988.71
2023-02-22T05:18:42.806Z,988.74
2023-02-22T05:19:42.793Z,988.66
2023-02-22T05:20:42.799Z,988.71
2023-02-22T05:21:42.765Z,988.67
2023-02-22T05:22:42.758Z,988.67
2023-02-22T05:23:42.762Z,988.72
2023-02-22T05:24:42.751Z,988.69
2023-02-22T05:25:42.725Z,988.66
2023-02-22T05:26:42.723Z,988.64
2023-02-22T05:27:42.713Z,988.62
2023-02-22T05:28:42.710Z,988.63
2023-02-22T05:29:42.691Z,988.58
2023-02-22T05:30:42.722Z,988.62
2023-02-22T05:31:42.833Z,988.62
2023-02-22T05:32:42.677Z,988.64
2023-02-22T05:33:42.649Z,988.61
2023-02-22T05:34:42.644Z,988.62
2023-02-22T05:35:42.645Z,988.61
2023-02-22T05:36:42.647Z,988.60
2023-02-22T05:37:42.623Z,988.62
2023-02-22T05:38:42.620Z,988.56
2023-02-22T05:39:42.610Z,988.61
2023-02-22T05:40:42.588Z,988.58
2023-02-22T05:41:43.590Z,988.57
2023-02-22T05:42:42.561Z,988.57
2023-02-22T05:43:42.577Z,988.57
2023-02-22T05:44:42.563Z,988.56
2023-02-22T05:45:42.533Z,988.56
2023-02-22T05:46:42.549Z,988.55
2023-02-22T05:47:42.536Z,988.50
2023-02-22T05:48:42.495Z,988.50
2023-02-22T05:49:42.533Z,988.58
2023-02-22T05:50:42.495Z,988.55
2023-02-22T05:51:42.495Z,988.49
2023-02-22T05:52:42.486Z,988.56
2023-02-22T05:53:42.482Z,988.48
2023-02-22T05:54:42.452Z,988.47
2023-02-22T05:55:42.446Z,988.47
2023-02-22T05:56:42.421Z,988.50
2023-02-22T05:57:42.414Z,988.48
2023-02-22T05:58:42.423Z,988.46
2023-02-22T05:59:42.397Z,988.46
2023-02-22T06:00:42.382Z,988.48
2023-02-22T06:01:42.406Z,988.46
2023-02-22T06:02:42.346Z,988.47
2023-02-22T06:03:42.345Z,988.43
2023-02-22T06:04:42.372Z,988.44
2023-02-22T06:05:42.401Z,988.43
2023-02-22T06:06:42.320Z,988.45
2023-02-22T06:07:42.333Z,988.45
2023-02-22T06:08:42.307Z,988.49
2023-02-22T06:09:42.314Z,988.49
2023-02-22T06:10:42.307Z,988.49
2023-02-22T06:11:42.276Z,988.48
2023-02-22T06:12:42.256Z,988.50
2023-02-22T06:13:42.281Z,988.45
2023-02-22T06:14:42.246Z,988.46
2023-02-22T06:15:42.225Z,988.45
2023-02-22T06:16:42.205Z,988.47
2023-02-22T06:17:43.221Z,988.57
2023-02-22T06:18:42.218Z,988.49
2023-02-22T06:19:42.193Z,988.49
2023-02-22T06:20:42.177Z,988.51
2023-02-22T06:21:42.154Z,988.47
2023-02-22T06:22:43.164Z,988.50
2023-02-22T06:23:42.142Z,988.52
2023-02-22T06:24:42.152Z,988.57
2023-02-22T06:25:42.149Z,988.53
2023-02-22T06:26:42.127Z,988.57
2023-02-22T06:27:42.113Z,988.63
2023-02-22T06:28:42.099Z,988.55
2023-02-22T06:29:42.098Z,988.57
2023-02-22T06:30:42.098Z,988.57
2023-02-22T06:31:42.115Z,988.59
2023-02-22T06:32:42.091Z,988.54
2023-02-22T06:33:42.040Z,988.61
2023-02-22T06:34:42.063Z,988.57
2023-02-22T06:35:42.041Z,988.60
2023-02-22T06:36:42.023Z,988.57
2023-02-22T06:37:41.995Z,988.58
2023-02-22T06:38:42.009Z,988.58
2023-02-22T06:39:41.993Z,988.59
2023-02-22T06:40:41.951Z,988.66
2023-02-22T06:41:41.979Z,988.61
2023-02-22T06:42:41.953Z,988.64
2023-02-22T06:43:41.927Z,988.63
2023-02-22T06:44:41.952Z,988.63
2023-02-22T06:45:41.964Z,988.69
2023-02-22T06:46:41.918Z,988.68
2023-02-22T06:47:41.901Z,988.66
2023-02-22T06:48:41.891Z,988.72
2023-02-22T06:49:41.890Z,988.66
2023-02-22T06:50:41.873Z,988.67
2023-02-22T06:51:41.861Z,988.71
2023-02-22T06:52:41.836Z,988.69
2023-02-22T06:53:41.839Z,988.68
2023-02-22T06:54:41.826Z,988.73
2023-02-22T06:55:41.811Z,988.66
2023-02-22T06:56:41.814Z,988.71
2023-02-22T06:57:41.796Z,988.72
2023-02-22T06:58:41.791Z,988.68
2023-02-22T06:59:41.776Z,988.68
2023-02-22T07:00:41.766Z,988.71
2023-02-22T07:01:41.762Z,988.74
2023-02-22T07:02:41.743Z,988.68
2023-02-22T07:03:41.736Z,988.72
2023-02-22T07:04:43.417Z,988.76
2023-02-22T07:05:42.714Z,988.74
2023-02-22T07:06:41.712Z,988.66
2023-02-22T07:07:41.695Z,988.70
2023-02-22T07:08:41.703Z,988.71
2023-02-22T07:09:41.672Z,988.71
2023-02-22T07:10:41.671Z,988.70
2023-02-22T07:11:41.642Z,988.72
2023-02-22T07:12:41.644Z,988.67
2023-02-22T07:13:41.640Z,988.65
2023-02-22T07:14:41.612Z,988.69
2023-02-22T07:15:41.599Z,988.71
2023-02-22T07:16:41.643Z,988.71
2023-02-22T07:17:41.599Z,988.72
2023-02-22T07:18:41.575Z,988.76
2023-02-22T07:19:41.571Z,988.75
2023-02-22T07:20:41.567Z,988.78
2023-02-22T07:21:41.606Z,988.71
2023-02-22T07:22:41.582Z,988.76
2023-02-22T07:23:41.559Z,988.74
2023-02-22T07:24:41.516Z,988.73
2023-02-22T07:25:41.497Z,988.71
2023-02-22T07:26:41.497Z,988.72
2023-02-22T07:27:41.510Z,988.73
2023-02-22T07:28:41.485Z,988.74
2023-02-22T07:29:41.462Z,988.71
2023-02-22T07:30:41.525Z,988.74
2023-02-22T07:31:41.443Z,988.70
2023-02-22T07:32:41.568Z,988.76
2023-02-22T07:33:41.417Z,988.74
2023-02-22T07:34:41.426Z,988.74
2023-02-22T07:35:41.436Z,988.81
2023-02-22T07:36:41.389Z,988.76
2023-02-22T07:37:41.389Z,988.72
2023-02-22T07:38:41.366Z,988.75
2023-02-22T07:39:41.363Z,988.72
2023-02-22T07:40:41.358Z,988.75
2023-02-22T07:41:41.352Z,988.73
2023-02-22T07:42:41.355Z,988.74
2023-02-22T07:43:41.325Z,988.76
2023-02-22T07:44:41.308Z,988.68
2023-02-22T07:45:41.340Z,988.72
2023-02-22T07:46:41.310Z,988.70
2023-02-22T07:47:41.285Z,988.70
2023-02-22T07:48:41.268Z,988.68
2023-02-22T07:49:41.250Z,988.68
2023-02-22T07:50:41.245Z,988.70
2023-02-22T07:51:41.306Z,988.67
2023-02-22T07:52:41.259Z,988.58
2023-02-22T07:53:41.233Z,988.69
2023-02-22T07:54:41.216Z,988.69
2023-02-22T07:55:41.193Z,988.69
2023-02-22T07:56:41.204Z,988.69
2023-02-22T07:57:41.182Z,988.66
2023-02-22T07:58:41.164Z,988.64
2023-02-22T07:59:41.159Z,988.62
2023-02-22T08:00:41.154Z,988.58
2023-02-22T08:01:41.138Z,988.60
2023-02-22T08:02:41.164Z,988.63
2023-02-22T08:03:41.168Z,988.60
2023-02-22T08:04:41.125Z,988.54
2023-02-22T08:05:41.110Z,988.59
2023-02-22T08:06:41.089Z,988.56
2023-02-22T08:07:41.065Z,988.55
2023-02-22T08:08:41.085Z,988.57
2023-02-22T08:09:41.054Z,988.58
2023-02-22T08:10:41.052Z,988.56
2023-02-22T08:11:41.049Z,988.60
2023-02-22T08:12:41.043Z,988.54
2023-02-22T08:13:41.029Z,988.52
2023-02-22T08:14:41.017Z,988.52
2023-02-22T08:15:41.014Z,988.44
2023-02-22T08:16:40.993Z,988.50
2023-02-22T08:18:12.885Z,988.46
2023-02-22T08:18:40.986Z,988.51
2023-02-22T08:19:40.946Z,988.47
2023-02-22T08:20:40.993Z,988.45
2023-02-22T08:21:40.943Z,988.46
2023-02-22T08:22:40.942Z,988.44
2023-02-22T08:23:40.893Z,988.40
2023-02-22T08:24:40.920Z,988.44
2023-02-22T08:25:40.871Z,988.35
2023-02-22T08:26:40.859Z,988.36
2023-02-22T08:27:40.961Z,988.35
2023-02-22T08:28:40.886Z,988.39
2023-02-22T08:29:40.861Z,988.33
2023-02-22T08:30:41.012Z,988.32
2023-02-22T08:31:41.952Z,988.36
2023-02-22T08:32:40.848Z,988.27
2023-02-22T08:33:40.794Z,988.29
2023-02-22T08:34:40.778Z,988.23
2023-02-22T08:35:40.843Z,988.31
2023-02-22T08:36:40.766Z,988.28
2023-02-22T08:37:40.744Z,988.22
2023-02-22T08:38:40.744Z,988.24
2023-02-22T08:39:40.741Z,988.22
2023-02-22T08:40:40.703Z,988.19
2023-02-22T08:41:40.715Z,988.23
2023-02-22T08:42:40.685Z,988.19
2023-02-22T08:43:40.712Z,988.17
2023-02-22T08:44:40.677Z,988.18
2023-02-22T08:45:40.735Z,988.21
2023-02-22T08:46:40.667Z,988.17
2023-02-22T08:47:40.620Z,988.16
2023-02-22T08:48:40.638Z,988.17
2023-02-22T08:49:40.658Z,988.15
2023-02-22T08:50:40.611Z,988.16
2023-02-22T08:51:40.615Z,988.13
2023-02-22T08:52:40.576Z,988.09
2023-02-22T08:53:40.545Z,988.12
2023-02-22T08:54:40.553Z,988.06
2023-02-22T08:55:40.554Z,988.15
2023-02-22T08:56:40.513Z,988.07
2023-02-22T08:57:40.535Z,988.09
2023-02-22T08:58:40.519Z,988.07
2023-02-22T08:59:40.527Z,988.06
2023-02-22T09:00:40.511Z,988.00
2023-02-22T09:01:40.512Z,988.03
2023-02-22T09:02:40.461Z,988.04
2023-02-22T09:03:40.513Z,988.06
2023-02-22T09:04:40.466Z,988.07
2023-02-22T09:05:40.504Z,988.07
2023-02-22T09:06:40.434Z,987.98
2023-02-22T09:07:40.432Z,988.01
2023-02-22T09:08:40.396Z,988.02
2023-02-22T09:09:40.404Z,988.05
2023-02-22T09:10:40.383Z,988.02
2023-02-22T09:11:40.371Z,987.98
2023-02-22T09:12:40.359Z,987.98
2023-02-22T09:13:40.334Z,987.95
2023-02-22T09:14:40.337Z,987.93
2023-02-22T09:15:40.330Z,987.94
2023-02-22T09:16:40.334Z,987.84
2023-02-22T09:17:40.279Z,987.88
2023-02-22T09:18:44.322Z,987.91
2023-02-22T09:19:41.296Z,987.93
2023-02-22T09:20:40.234Z,987.94
2023-02-22T09:21:40.277Z,987.88
2023-02-22T09:22:40.245Z,987.86
2023-02-22T09:23:40.213Z,987.84
2023-02-22T09:24:40.221Z,987.79
2023-02-22T09:25:40.219Z,987.77
2023-02-22T09:26:40.212Z,987.79
2023-02-22T09:27:40.173Z,987.77
2023-02-22T09:28:40.197Z,987.83
2023-02-22T09:29:40.166Z,987.78
2023-02-22T09:30:40.213Z,987.75
2023-02-22T09:31:40.258Z,987.78
2023-02-22T09:32:40.407Z,987.78
2023-02-22T09:33:40.102Z,987.79
2023-02-22T09:34:40.141Z,987.70
2023-02-22T09:35:40.136Z,987.75
2023-02-22T09:36:40.094Z,987.76
2023-02-22T09:37:42.084Z,987.75
2023-02-22T09:38:43.977Z,987.74
2023-02-22T09:39:40.114Z,987.72
2023-02-22T09:40:40.071Z,987.73
2023-02-22T09:41:40.034Z,987.72
2023-02-22T09:42:40.019Z,987.72
2023-02-22T09:43:40.030Z,987.73
2023-02-22T09:44:40.001Z,987.68
2023-02-22T09:45:40.037Z,987.65
2023-02-22T09:46:40.978Z,987.67
2023-02-22T09:47:40.001Z,987.68
2023-02-22T09:48:39.950Z,987.62
2023-02-22T09:49:39.990Z,987.56
2023-02-22T09:50:39.940Z,987.63
2023-02-22T09:51:39.918Z,987.65
2023-02-22T09:52:39.931Z,987.59
2023-02-22T09:53:39.889Z,987.62
2023-02-22T09:54:39.893Z,987.60
2023-02-22T09:55:39.902Z,987.60
2023-02-22T09:56:39.876Z,987.61
2023-02-22T09:57:39.842Z,987.65
2023-02-22T09:58:41.827Z,987.61
2023-02-22T09:59:40.870Z,987.60
2023-02-22T10:00:39.820Z,987.53
2023-02-22T10:01:39.849Z,987.57
2023-02-22T10:02:39.809Z,987.54
2023-02-22T10:03:39.833Z,987.58
2023-02-22T10:04:39.806Z,987.53
2023-02-22T10:05:39.975Z,987.56
2023-02-22T10:06:39.786Z,987.58
2023-02-22T10:07:39.781Z,987.53
2023-02-22T10:08:39.737Z,987.53
2023-02-22T10:09:39.758Z,987.54
2023-02-22T10:10:39.753Z,987.55
2023-02-22T10:11:39.702Z,987.53
2023-02-22T10:12:39.690Z,987.50
2023-02-22T10:13:39.733Z,987.51
2023-02-22T10:14:39.684Z,987.51
2023-02-22T10:15:39.657Z,987.52
2023-02-22T10:16:39.700Z,987.52
2023-02-22T10:17:39.628Z,987.49
2023-02-22T10:18:39.632Z,987.53
2023-02-22T10:19:39.684Z,987.51
2023-02-22T10:20:39.606Z,987.53
2023-02-22T10:21:39.593Z,987.45
2023-02-22T10:22:39.613Z,987.50
2023-02-22T10:23:39.593Z,987.45
2023-02-22T10:24:39.600Z,987.45
2023-02-22T10:25:39.594Z,987.44
2023-02-22T10:26:39.573Z,987.39
2023-02-22T10:27:39.524Z,987.42
2023-02-22T10:28:39.528Z,987.39
2023-02-22T10:29:39.531Z,987.37
2023-02-22T10:30:39.550Z,987.34
2023-02-22T10:31:39.596Z,987.30
2023-02-22T10:32:39.526Z,987.29
2023-02-22T10:33:39.448Z,987.28
2023-02-22T10:34:39.470Z,987.33
2023-02-22T10:35:39.479Z,987.30
2023-02-22T10:36:39.439Z,987.28
2023-02-22T10:37:39.446Z,987.28
2023-02-22T10:38:39.413Z,987.28
2023-02-22T10:39:39.484Z,987.26
2023-02-22T10:40:39.401Z,987.24
2023-02-22T10:41:39.356Z,987.28
2023-02-22T10:42:39.364Z,987.30
2023-02-22T10:43:39.412Z,987.23
2023-02-22T10:44:39.341Z,987.20
2023-02-22T10:45:39.345Z,987.21
2023-02-22T10:46:39.339Z,987.18
2023-02-22T10:47:39.328Z,987.17
2023-02-22T10:48:39.288Z,987.19
2023-02-22T10:49:39.347Z,987.15
2023-02-22T10:50:39.284Z,987.18
2023-02-22T10:51:39.300Z,987.20
2023-02-22T10:52:39.280Z,987.19
2023-02-22T10:53:39.273Z,987.16
2023-02-22T10:54:39.246Z,987.16
2023-02-22T10:55:39.263Z,987.19
2023-02-22T10:56:39.254Z,987.12
2023-02-22T10:57:39.196Z,987.17
2023-02-22T10:58:39.237Z,987.12
2023-02-22T10:59:39.226Z,987.13
2023-02-22T11:00:39.189Z,987.08
2023-02-22T11:01:39.230Z,987.14
2023-02-22T11:02:39.160Z,987.11
2023-02-22T11:03:39.165Z,987.10
2023-02-22T11:04:39.186Z,987.09
2023-02-22T11:05:39.135Z,987.10
2023-02-22T11:06:39.114Z,987.12
2023-02-22T11:07:39.106Z,987.08
2023-02-22T11:08:39.096Z,987.15
2023-02-22T11:09:39.095Z,987.08
2023-02-22T11:10:39.080Z,987.06
2023-02-22T11:11:40.028Z,987.11
2023-02-22T11:12:39.037Z,987.00
2023-02-22T11:13:39.047Z,986.99
2023-02-22T11:14:39.036Z,987.00
2023-02-22T11:15:39.051Z,987.04
2023-02-22T11:16:39.086Z,986.90
2023-02-22T11:17:38.971Z,986.92
2023-02-22T11:18:38.983Z,986.90
2023-02-22T11:19:38.980Z,986.93
2023-02-22T11:20:38.937Z,986.94
2023-02-22T11:21:38.947Z,986.98
2023-02-22T11:22:38.969Z,986.97
2023-02-22T11:23:38.893Z,987.04
2023-02-22T11:24:48.830Z,987.05
2023-02-22T11:25:40.937Z,986.99
2023-02-22T11:26:38.879Z,987.02
2023-02-22T11:27:38.863Z,987.00
2023-02-22T11:28:38.909Z,986.99
2023-02-22T11:29:38.849Z,986.96
2023-02-22T11:30:38.902Z,986.97
2023-02-22T11:31:38.944Z,986.96
2023-02-22T11:32:38.820Z,986.94
2023-02-22T11:33:38.802Z,986.92
2023-02-22T11:34:38.814Z,986.91
2023-02-22T11:35:38.805Z,986.91
2023-02-22T11:36:38.778Z,986.87
2023-02-22T11:37:38.766Z,986.89
2023-02-22T11:38:38.752Z,986.95
2023-02-22T11:39:38.781Z,986.88
2023-02-22T11:40:38.730Z,986.81
2023-02-22T11:41:38.729Z,986.78
2023-02-22T11:42:38.729Z,986.78
2023-02-22T11:43:38.692Z,986.82
2023-02-22T11:44:38.660Z,986.78
2023-02-22T11:45:44.234Z,986.73
2023-02-22T11:46:40.680Z,986.78
2023-02-22T11:47:38.626Z,986.76
2023-02-22T11:48:38.663Z,986.67
2023-02-22T11:49:38.651Z,986.66
2023-02-22T11:50:38.623Z,986.67
2023-02-22T11:51:38.613Z,986.67
2023-02-22T11:52:38.602Z,986.68
2023-02-22T11:53:38.580Z,986.63
2023-02-22T11:54:38.600Z,986.62
2023-02-22T11:55:43.107Z,986.59
2023-02-22T11:56:40.005Z,986.60
2023-02-22T11:57:38.576Z,986.57
2023-02-22T11:58:38.514Z,986.60
2023-02-22T11:59:38.531Z,986.55
2023-02-22T12:00:38.504Z,986.52
2023-02-22T12:01:38.502Z,986.53
2023-02-22T12:02:39.997Z,986.49
2023-02-22T12:03:38.557Z,986.53
2023-02-22T12:04:39.438Z,986.53
2023-02-22T12:05:38.468Z,986.50
2023-02-22T12:06:38.493Z,986.51
2023-02-22T12:07:38.435Z,986.45
2023-02-22T12:08:38.425Z,986.48
2023-02-22T12:09:38.420Z,986.55
2023-02-22T12:10:38.384Z,986.54
2023-02-22T12:11:38.409Z,986.54
2023-02-22T12:12:38.449Z,986.48
2023-02-22T12:13:38.358Z,986.47
2023-02-22T12:14:38.346Z,986.48
2023-02-22T12:15:38.466Z,986.47
2023-02-22T12:16:38.347Z,986.54
2023-02-22T12:17:40.219Z,986.52
2023-02-22T12:18:38.329Z,986.51
2023-02-22T12:19:38.334Z,986.49
2023-02-22T12:20:38.295Z,986.53
2023-02-22T12:21:38.291Z,986.47
2023-02-22T12:22:38.268Z,986.41
2023-02-22T12:23:38.277Z,986.38
2023-02-22T12:24:38.264Z,986.36
2023-02-22T12:25:38.240Z,986.41
2023-02-22T12:26:38.218Z,986.34
2023-02-22T12:27:38.228Z,986.38
2023-02-22T12:28:38.250Z,986.32